Time;durP1;ratioP1;P1;durP2;ratioP2;P2;SDS_P1;SDS_P2;PMS_P1;PMS_P2;Temp;Humidity;BMP_temperature;BMP_pressure;BME280_temperature;BME280_humidity;BME280_pressure;Samples;Min_cycle;Max_cycle;Signal;HPM_P1;HPM_P2
2022/03/12 00:00:54;;;;;;;20.20;11.45;;;3.70;49.50;;;;;;4938965;28;20087;-66
2022/03/12 00:03:20;;;;;;;20.83;11.07;;;3.70;49.80;;;;;;4939209;28;20499;-65
2022/03/12 00:05:53;;;;;;;18.40;10.90;;;3.60;49.70;;;;;;4939190;28;20043;-65
2022/03/12 00:11:05;;;;;;;18.48;10.80;;;3.60;50.10;;;;;;4938454;28;20031;-65
2022/03/12 00:13:32;;;;;;;19.95;11.38;;;3.50;49.80;;;;;;4938657;28;20050;-66
2022/03/12 00:15:58;;;;;;;20.20;11.43;;;3.50;49.90;;;;;;4938418;28;20040;-66
2022/03/12 00:18:25;;;;;;;19.77;11.07;;;3.50;49.90;;;;;;4935583;28;20130;-66
2022/03/12 00:20:50;;;;;;;19.63;11.25;;;3.50;49.90;;;;;;4939702;28;20058;-66
2022/03/12 00:23:18;;;;;;;18.70;10.77;;;3.50;49.90;;;;;;4938321;28;20044;-65
2022/03/12 00:25:47;;;;;;;20.70;10.82;;;3.50;50.10;;;;;;4939273;28;20054;-65
2022/03/12 00:28:12;;;;;;;18.83;10.38;;;3.50;50.00;;;;;;4938894;28;20586;-63
2022/03/12 00:30:39;;;;;;;18.77;9.95;;;3.50;50.00;;;;;;4938305;28;20036;-65
2022/03/12 00:33:05;;;;;;;17.25;10.13;;;3.50;50.00;;;;;;4936676;28;20043;-66
2022/03/12 00:35:31;;;;;;;19.13;10.13;;;3.50;49.90;;;;;;4937671;28;20039;-66
2022/03/12 00:37:57;;;;;;;18.10;9.85;;;3.50;50.00;;;;;;4934056;28;20059;-66
2022/03/12 00:40:22;;;;;;;21.55;9.95;;;3.50;50.10;;;;;;4935144;28;20378;-66
2022/03/12 00:42:48;;;;;;;19.67;9.85;;;3.50;50.10;;;;;;4936960;28;20094;-66
2022/03/12 00:45:15;;;;;;;16.35;9.52;;;3.50;50.10;;;;;;4935929;28;20046;-65
2022/03/12 00:47:41;;;;;;;14.25;9.75;;;3.50;50.00;;;;;;4938903;28;20106;-65
2022/03/12 00:50:07;;;;;;;20.75;9.60;;;3.50;50.00;;;;;;4935680;28;20161;-66
2022/03/12 00:52:33;;;;;;;16.98;9.52;;;3.50;50.00;;;;;;4936843;28;20054;-66
2022/03/12 00:54:58;;;;;;;15.93;9.02;;;3.50;50.00;;;;;;4934744;28;20042;-66
2022/03/12 00:57:24;;;;;;;15.98;9.20;;;3.60;50.00;;;;;;4937740;28;20036;-66
2022/03/12 00:59:50;;;;;;;17.90;8.65;;;3.60;50.00;;;;;;4932321;28;20066;-65
2022/03/12 01:02:16;;;;;;;15.93;9.10;;;3.60;50.00;;;;;;4934548;28;20046;-65
2022/03/12 01:04:43;;;;;;;20.63;9.35;;;3.60;49.90;;;;;;4934713;28;20038;-65
2022/03/12 01:07:12;;;;;;;14.60;8.52;;;3.60;49.90;;;;;;4937386;28;20035;-66
2022/03/12 01:09:41;;;;;;;17.73;9.18;;;3.60;50.10;;;;;;4932421;28;20035;-64
2022/03/12 01:12:08;;;;;;;14.00;8.20;;;3.60;50.10;;;;;;4937056;28;20031;-65
2022/03/12 01:14:38;;;;;;;16.05;8.13;;;3.70;50.10;;;;;;4935850;28;20561;-65
2022/03/12 01:17:05;;;;;;;13.82;8.60;;;3.60;50.00;;;;;;4933993;28;20087;-65
2022/03/12 01:19:34;;;;;;;13.75;8.25;;;3.70;50.10;;;;;;4935792;28;20220;-65
2022/03/12 01:22:01;;;;;;;15.40;8.68;;;3.70;50.10;;;;;;4934394;28;22128;-65
2022/03/12 01:24:28;;;;;;;16.30;8.80;;;3.70;50.10;;;;;;4935152;28;20035;-65
2022/03/12 01:26:53;;;;;;;14.30;9.20;;;3.70;50.00;;;;;;4935424;28;20046;-65
2022/03/12 01:29:19;;;;;;;15.75;8.52;;;3.70;50.00;;;;;;4935095;28;20032;-66
2022/03/12 01:31:45;;;;;;;20.10;9.35;;;3.70;50.00;;;;;;4935599;28;20411;-66
2022/03/12 01:34:10;;;;;;;19.25;9.23;;;3.70;50.00;;;;;;4935062;28;20041;-66
2022/03/12 01:36:36;;;;;;;16.30;8.57;;;3.70;50.00;;;;;;4936316;28;20039;-65
2022/03/12 01:39:02;;;;;;;13.15;8.07;;;3.70;50.00;;;;;;4942081;28;20059;-66
2022/03/12 01:41:30;;;;;;;16.98;8.93;;;3.70;50.00;;;;;;4934575;28;20038;-66
2022/03/12 01:43:58;;;;;;;15.20;9.02;;;3.70;49.90;;;;;;4935211;28;20040;-65
2022/03/12 01:46:39;;;;;;;16.08;8.50;;;3.70;49.90;;;;;;4934879;28;20404;-65
2022/03/12 01:49:25;;;;;;;16.23;9.05;;;3.70;50.00;;;;;;4934128;28;20027;-66
2022/03/12 01:51:53;;;;;;;19.67;8.32;;;3.70;50.10;;;;;;4935415;28;20028;-65
2022/03/12 01:54:24;;;;;;;19.25;8.57;;;3.70;49.80;;;;;;4936088;28;20038;-65
2022/03/12 01:56:51;;;;;;;17.40;8.95;;;3.70;49.90;;;;;;4933221;28;20050;-65
2022/03/12 01:59:17;;;;;;;15.55;8.57;;;3.70;49.90;;;;;;4934942;28;20095;-66
2022/03/12 02:01:43;;;;;;;13.88;8.43;;;3.70;49.90;;;;;;4938381;28;20059;-66
2022/03/12 02:04:08;;;;;;;19.65;8.35;;;3.70;49.90;;;;;;4937050;28;20118;-66
2022/03/12 02:06:42;;;;;;;15.10;8.50;;;3.70;49.90;;;;;;4935497;28;20036;-66
2022/03/12 02:09:13;;;;;;;17.73;9.18;;;3.70;49.90;;;;;;4935282;28;20027;-64
2022/03/12 02:11:41;;;;;;;15.05;8.43;;;3.60;49.90;;;;;;4935129;28;20039;-65
2022/03/12 02:14:15;;;;;;;14.57;8.55;;;3.60;49.90;;;;;;4935285;28;20062;-64
2022/03/12 02:16:50;;;;;;;14.52;8.00;;;3.60;50.10;;;;;;4937222;28;20055;-65
2022/03/12 02:19:17;;;;;;;15.20;8.15;;;3.60;50.00;;;;;;4941963;28;20666;-66
2022/03/12 02:21:49;;;;;;;17.73;9.10;;;3.60;50.00;;;;;;4938417;28;20035;-66
2022/03/12 02:24:17;;;;;;;20.30;9.07;;;3.50;50.10;;;;;;4939781;28;20032;-65
2022/03/12 02:26:44;;;;;;;15.55;8.55;;;3.50;50.10;;;;;;4941321;28;20028;-65
2022/03/12 02:29:12;;;;;;;12.90;8.50;;;3.50;50.10;;;;;;4939720;28;20516;-65
2022/03/12 02:31:41;;;;;;;19.88;8.73;;;3.50;50.10;;;;;;4939904;28;20035;-66
2022/03/12 02:34:09;;;;;;;15.43;8.43;;;3.50;50.10;;;;;;4938606;28;20439;-65
2022/03/12 02:36:34;;;;;;;14.63;8.88;;;3.50;50.10;;;;;;4938208;28;20142;-66
2022/03/12 02:39:04;;;;;;;13.85;8.60;;;3.50;50.10;;;;;;4940344;28;20115;-66
2022/03/12 02:41:30;;;;;;;13.70;8.48;;;3.50;50.10;;;;;;4939675;28;20039;-66
2022/03/12 02:43:56;;;;;;;11.63;7.80;;;3.40;50.10;;;;;;4939706;28;20035;-66
2022/03/12 02:46:26;;;;;;;15.48;8.50;;;3.40;50.20;;;;;;4938463;28;20027;-66
2022/03/12 02:48:52;;;;;;;17.15;7.95;;;3.40;50.30;;;;;;4939081;28;20541;-65
2022/03/12 02:51:21;;;;;;;15.20;8.10;;;3.40;50.40;;;;;;4938372;28;20031;-65
2022/03/12 02:53:49;;;;;;;13.93;8.77;;;3.30;50.40;;;;;;4939096;28;20106;-66
2022/03/12 02:56:15;;;;;;;15.57;8.13;;;3.30;50.50;;;;;;4939232;28;20035;-66
2022/03/12 02:58:41;;;;;;;14.55;8.57;;;3.30;50.40;;;;;;4938355;28;20308;-64
2022/03/12 03:01:06;;;;;;;15.27;8.85;;;3.30;50.50;;;;;;4944246;28;20481;-65
2022/03/12 03:03:36;;;;;;;13.20;8.07;;;3.30;50.60;;;;;;4938936;28;20044;-65
2022/03/12 03:06:02;;;;;;;12.32;7.97;;;3.40;50.50;;;;;;4940806;28;20034;-66
2022/03/12 03:08:28;;;;;;;15.82;8.68;;;3.30;50.50;;;;;;4937595;28;20040;-65
2022/03/12 03:10:57;;;;;;;11.88;7.93;;;3.30;50.70;;;;;;4938982;28;20053;-66
2022/03/12 03:13:45;;;;;;;12.55;8.10;;;3.30;50.80;;;;;;4936400;28;20400;-66
2022/03/12 03:16:22;;;;;;;12.82;7.45;;;3.30;50.80;;;;;;4937151;28;20035;-65
2022/03/12 03:18:53;;;;;;;13.63;7.72;;;3.20;50.50;;;;;;4937987;28;20070;-66
2022/03/12 03:21:23;;;;;;;13.55;8.05;;;3.20;50.40;;;;;;4938413;28;20036;-66
2022/03/12 03:23:48;;;;;;;13.27;7.20;;;3.30;50.40;;;;;;4938586;28;20047;-66
2022/03/12 03:26:38;;;;;;;18.10;8.55;;;3.20;50.30;;;;;;4939420;28;20451;-66
2022/03/12 03:29:04;;;;;;;14.02;8.02;;;3.20;50.50;;;;;;4939703;28;20052;-65
2022/03/12 03:31:30;;;;;;;11.23;7.30;;;3.20;50.50;;;;;;4937992;28;20404;-65
2022/03/12 03:33:55;;;;;;;14.70;7.70;;;3.20;50.60;;;;;;4938063;28;20586;-66
2022/03/12 03:36:21;;;;;;;12.45;7.75;;;3.10;50.50;;;;;;4939336;28;20039;-65
2022/03/12 03:38:47;;;;;;;13.45;7.68;;;3.10;50.70;;;;;;4937581;28;20044;-65
2022/03/12 03:41:14;;;;;;;12.13;7.70;;;3.10;50.70;;;;;;4941529;28;20082;-65
2022/03/12 03:43:46;;;;;;;13.15;7.65;;;3.10;50.70;;;;;;4936868;28;20070;-66
2022/03/12 03:46:16;;;;;;;13.68;7.70;;;3.10;51.10;;;;;;4938387;28;20090;-65
2022/03/12 03:48:42;;;;;;;13.18;7.85;;;3.00;51.10;;;;;;4934924;28;20143;-66
2022/03/12 03:51:08;;;;;;;13.73;7.97;;;3.00;51.00;;;;;;4939269;28;20571;-66
2022/03/12 03:53:34;;;;;;;12.35;7.65;;;3.00;51.00;;;;;;4937346;28;20122;-65
2022/03/12 03:56:00;;;;;;;12.88;8.27;;;3.00;50.90;;;;;;4939666;28;20063;-65
2022/03/12 03:58:27;;;;;;;14.63;7.80;;;3.00;50.80;;;;;;4937110;28;20031;-65
2022/03/12 04:00:59;;;;;;;14.48;7.65;;;2.90;50.60;;;;;;4940706;28;20056;-65
2022/03/12 04:03:26;;;;;;;13.05;7.90;;;2.90;50.60;;;;;;4940882;28;20198;-65
2022/03/12 04:05:52;;;;;;;12.55;7.75;;;2.90;50.70;;;;;;4955425;28;20534;-65
2022/03/12 04:08:18;;;;;;;12.88;7.90;;;2.90;50.80;;;;;;4937872;28;20039;-63
2022/03/12 04:10:44;;;;;;;13.90;7.65;;;2.80;50.90;;;;;;4937572;28;20043;-66
2022/03/12 04:13:19;;;;;;;15.50;8.52;;;2.80;51.60;;;;;;4939256;28;20071;-66
2022/03/12 04:15:46;;;;;;;18.27;8.88;;;2.80;51.00;;;;;;4941742;28;20040;-66
2022/03/12 04:18:15;;;;;;;13.70;8.23;;;2.80;50.90;;;;;;4936992;28;20514;-63
2022/03/12 04:20:46;;;;;;;15.30;8.23;;;2.80;50.90;;;;;;4939181;28;20040;-67
2022/03/12 04:23:13;;;;;;;15.43;7.80;;;2.80;50.90;;;;;;4939039;28;20044;-65
2022/03/12 04:25:39;;;;;;;13.43;7.85;;;2.80;51.00;;;;;;4937308;28;20120;-66
2022/03/12 04:28:06;;;;;;;13.35;8.02;;;2.80;51.10;;;;;;4938347;28;20126;-64
2022/03/12 04:30:32;;;;;;;17.60;8.02;;;2.80;51.20;;;;;;4937832;28;20031;-65
2022/03/12 04:32:58;;;;;;;14.68;8.43;;;2.80;51.40;;;;;;4937423;28;20041;-65
2022/03/12 04:35:24;;;;;;;13.60;8.57;;;2.80;51.20;;;;;;4936820;28;20098;-65
2022/03/12 04:37:50;;;;;;;15.73;7.70;;;2.80;51.80;;;;;;4936699;28;20039;-66
2022/03/12 04:40:23;;;;;;;13.35;7.97;;;2.80;51.20;;;;;;4940771;28;20035;-66
2022/03/12 04:42:48;;;;;;;13.15;7.65;;;2.80;51.50;;;;;;4938035;28;20112;-64
2022/03/12 04:45:17;;;;;;;14.27;7.60;;;2.80;51.40;;;;;;4936613;28;20468;-65
2022/03/12 04:47:45;;;;;;;14.60;7.60;;;2.80;51.40;;;;;;4938400;28;20391;-65
2022/03/12 04:50:12;;;;;;;14.98;8.43;;;2.80;51.50;;;;;;4935177;28;20043;-65
2022/03/12 04:52:42;;;;;;;13.80;7.25;;;2.70;51.40;;;;;;4936458;28;20050;-65
2022/03/12 04:55:16;;;;;;;13.32;7.72;;;2.70;51.40;;;;;;4937710;28;20074;-65
2022/03/12 04:57:42;;;;;;;11.57;7.72;;;2.70;51.50;;;;;;4936806;28;20058;-65
2022/03/12 05:00:15;;;;;;;12.88;7.10;;;2.80;51.40;;;;;;4938458;28;20036;-65
2022/03/12 05:02:40;;;;;;;12.43;7.47;;;2.80;51.50;;;;;;4935902;28;20710;-66
2022/03/12 05:05:11;;;;;;;13.40;7.78;;;2.80;51.40;;;;;;4938562;28;20047;-65
2022/03/12 05:07:43;;;;;;;17.17;7.20;;;2.80;51.40;;;;;;4937209;28;20565;-64
2022/03/12 05:10:09;;;;;;;17.85;7.22;;;2.80;51.30;;;;;;4937450;28;20114;-66
2022/03/12 05:12:36;;;;;;;12.40;7.45;;;2.90;51.30;;;;;;4935948;28;20040;-66
2022/03/12 05:15:02;;;;;;;12.13;6.82;;;2.90;51.30;;;;;;4939062;28;20054;-66
2022/03/12 05:17:29;;;;;;;14.50;7.45;;;2.90;51.30;;;;;;4935839;28;20040;-64
2022/03/12 05:19:54;;;;;;;13.20;7.10;;;2.90;51.30;;;;;;4936173;28;20559;-66
2022/03/12 05:22:20;;;;;;;12.07;7.35;;;2.90;51.30;;;;;;4937097;28;20110;-65
2022/03/12 05:24:46;;;;;;;12.15;7.00;;;2.90;51.40;;;;;;4935938;28;20457;-66
2022/03/12 05:27:14;;;;;;;10.68;6.95;;;2.90;51.40;;;;;;4934770;28;20042;-65
2022/03/12 05:29:41;;;;;;;13.88;7.78;;;2.80;51.30;;;;;;4935486;28;20122;-65
2022/03/12 05:32:11;;;;;;;12.30;7.72;;;2.90;51.20;;;;;;4935605;28;20063;-65
2022/03/12 05:34:36;;;;;;;17.23;7.55;;;2.80;51.10;;;;;;4936538;28;20031;-66
2022/03/12 05:37:03;;;;;;;14.43;7.20;;;2.70;51.10;;;;;;4935959;28;20046;-66
2022/03/12 05:39:29;;;;;;;13.65;6.65;;;2.70;51.10;;;;;;4937007;28;20055;-66
2022/03/12 05:41:55;;;;;;;13.68;7.03;;;2.60;51.30;;;;;;4938068;28;20055;-65
2022/03/12 05:44:26;;;;;;;12.55;7.07;;;2.60;51.40;;;;;;4937035;28;20024;-65
2022/03/12 05:46:52;;;;;;;12.57;6.75;;;2.50;51.50;;;;;;4933425;28;20047;-65
2022/03/12 05:49:18;;;;;;;16.05;7.15;;;2.50;51.60;;;;;;4936031;28;20032;-65
2022/03/12 05:51:44;;;;;;;11.82;6.88;;;2.50;51.60;;;;;;4935534;28;20047;-65
2022/03/12 05:54:10;;;;;;;12.93;7.50;;;2.50;52.20;;;;;;4937293;28;20747;-66
2022/03/12 05:56:40;;;;;;;12.05;7.90;;;2.40;51.50;;;;;;4936540;28;20036;-65
2022/03/12 05:59:07;;;;;;;13.63;7.82;;;2.40;51.50;;;;;;4936553;28;20058;-65
2022/03/12 06:01:33;;;;;;;14.10;7.65;;;2.30;51.50;;;;;;4934628;28;20062;-66
2022/03/12 06:04:00;;;;;;;13.77;7.68;;;2.30;51.60;;;;;;4936914;28;20514;-66
2022/03/12 06:06:29;;;;;;;10.20;6.53;;;2.30;51.70;;;;;;4935698;28;20040;-66
2022/03/12 06:08:58;;;;;;;10.68;7.00;;;2.20;51.70;;;;;;4936333;28;20755;-65
2022/03/12 06:11:27;;;;;;;10.77;7.05;;;2.10;51.80;;;;;;4933757;28;20040;-65
2022/03/12 06:14:02;;;;;;;12.30;7.13;;;2.10;51.90;;;;;;4935559;28;20031;-65
2022/03/12 06:16:28;;;;;;;13.02;7.57;;;2.10;51.90;;;;;;4934140;28;20042;-64
2022/03/12 06:18:54;;;;;;;11.63;7.95;;;2.10;52.00;;;;;;4932634;28;20513;-66
2022/03/12 06:21:20;;;;;;;11.25;7.20;;;2.10;52.00;;;;;;4935590;28;20138;-66
2022/03/12 06:23:46;;;;;;;11.88;6.80;;;2.10;52.00;;;;;;4936222;28;20035;-66
2022/03/12 06:26:14;;;;;;;12.80;7.63;;;2.10;52.00;;;;;;4935206;28;20126;-65
2022/03/12 06:28:41;;;;;;;14.88;6.95;;;2.10;51.90;;;;;;4935169;28;20050;-65
2022/03/12 06:31:08;;;;;;;11.80;6.95;;;2.10;51.90;;;;;;4931501;28;20039;-66
2022/03/12 06:33:34;;;;;;;11.43;6.88;;;2.20;52.60;;;;;;4927825;28;20098;-64
2022/03/12 06:36:02;;;;;;;13.88;6.80;;;2.20;52.00;;;;;;4935014;28;20070;-66
2022/03/12 06:38:28;;;;;;;14.88;7.43;;;2.20;52.00;;;;;;4935402;28;20468;-65
2022/03/12 06:40:58;;;;;;;13.85;7.00;;;2.20;52.00;;;;;;4935111;28;20115;-65
2022/03/12 06:43:25;;;;;;;13.20;6.90;;;2.30;52.10;;;;;;4935216;28;20032;-65
2022/03/12 06:45:50;;;;;;;12.23;6.82;;;2.30;52.10;;;;;;4934257;28;20338;-66
2022/03/12 06:48:17;;;;;;;12.13;7.35;;;2.30;52.10;;;;;;4936034;28;20502;-65
2022/03/12 06:50:43;;;;;;;14.88;7.47;;;2.30;52.10;;;;;;4935163;28;20039;-66
2022/03/12 06:53:08;;;;;;;12.43;7.20;;;2.40;52.00;;;;;;4936510;28;20063;-66
2022/03/12 06:55:34;;;;;;;10.82;7.05;;;2.40;52.00;;;;;;4934735;28;20063;-65
2022/03/12 06:58:00;;;;;;;10.80;7.22;;;2.40;51.90;;;;;;4934788;28;20031;-64
2022/03/12 07:00:29;;;;;;;12.15;7.20;;;2.50;52.00;;;;;;4933008;28;20645;-65
2022/03/12 07:02:55;;;;;;;14.65;8.05;;;2.50;52.00;;;;;;4936551;28;20035;-64
2022/03/12 07:05:21;;;;;;;16.70;8.00;;;2.50;52.00;;;;;;4938666;28;20035;-65
2022/03/12 07:07:48;;;;;;;16.95;8.05;;;2.50;51.90;;;;;;4942799;28;20103;-66
2022/03/12 07:10:14;;;;;;;17.50;9.27;;;2.50;51.90;;;;;;4941969;28;20043;-65
2022/03/12 07:12:43;;;;;;;16.85;9.63;;;2.50;51.90;;;;;;4938713;28;20412;-66
2022/03/12 07:15:09;;;;;;;14.25;8.25;;;2.50;52.00;;;;;;4940978;28;20046;-66
2022/03/12 07:17:34;;;;;;;14.77;8.13;;;2.60;52.10;;;;;;4941020;28;20418;-66
2022/03/12 07:20:00;;;;;;;13.95;8.07;;;2.60;52.20;;;;;;4939834;28;20040;-66
2022/03/12 07:22:26;;;;;;;12.57;7.30;;;2.60;52.20;;;;;;4938875;28;20035;-65
2022/03/12 07:24:53;;;;;;;10.02;6.88;;;2.60;52.10;;;;;;4943089;28;20126;-65
2022/03/12 07:27:19;;;;;;;13.95;6.93;;;2.60;52.10;;;;;;4941161;28;20056;-66
2022/03/12 07:29:44;;;;;;;13.77;6.97;;;2.60;52.00;;;;;;4940665;28;20069;-66
2022/03/12 07:32:11;;;;;;;10.75;6.82;;;2.70;51.90;;;;;;4941874;28;20665;-66
2022/03/12 07:34:36;;;;;;;13.57;7.20;;;2.70;51.90;;;;;;4940788;28;20039;-65
2022/03/12 07:37:02;;;;;;;21.15;7.53;;;2.70;51.80;;;;;;4940397;28;20102;-65
2022/03/12 07:39:28;;;;;;;13.95;7.40;;;2.80;51.80;;;;;;4939612;28;21098;-65
2022/03/12 07:41:54;;;;;;;14.00;7.63;;;2.80;51.80;;;;;;4942120;28;20055;-66
2022/03/12 07:44:19;;;;;;;11.60;7.45;;;2.90;51.80;;;;;;4942266;28;20034;-65
2022/03/12 07:46:45;;;;;;;18.50;7.50;;;2.90;51.80;;;;;;4941076;28;20114;-66
2022/03/12 07:49:11;;;;;;;13.07;6.88;;;3.00;51.90;;;;;;4942811;28;20035;-65
2022/03/12 07:51:37;;;;;;;13.52;7.55;;;3.00;51.80;;;;;;4941129;28;20040;-65
2022/03/12 07:54:06;;;;;;;11.95;7.40;;;3.10;51.80;;;;;;4941890;28;20404;-66
2022/03/12 07:56:34;;;;;;;11.60;7.70;;;3.10;51.80;;;;;;4935601;28;20051;-64
2022/03/12 07:59:00;;;;;;;14.50;7.78;;;3.20;52.10;;;;;;4932144;28;20050;-63
2022/03/12 08:01:26;;;;;;;12.25;7.38;;;3.30;51.70;;;;;;4931570;28;20035;-63
2022/03/12 08:03:52;;;;;;;13.40;7.28;;;3.30;51.60;;;;;;4934474;28;20575;-63
2022/03/12 08:06:18;;;;;;;13.50;7.90;;;3.30;51.60;;;;;;4929688;28;20116;-64
2022/03/12 08:08:44;;;;;;;13.20;7.68;;;3.40;51.60;;;;;;4933750;28;20053;-65
2022/03/12 08:11:26;;;;;;;12.30;7.60;;;3.50;51.60;;;;;;4926102;28;20105;-63
2022/03/12 08:13:54;;;;;;;12.73;8.00;;;3.50;51.60;;;;;;4931009;28;20028;-64
2022/03/12 08:16:20;;;;;;;14.07;7.60;;;3.60;52.20;;;;;;4931013;28;20267;-64
2022/03/12 08:18:45;;;;;;;14.85;7.72;;;3.70;51.60;;;;;;4933771;28;20380;-64
2022/03/12 08:21:11;;;;;;;12.65;7.53;;;3.70;51.50;;;;;;4932207;28;20050;-63
2022/03/12 08:23:37;;;;;;;14.90;8.23;;;3.80;51.50;;;;;;4932194;28;20035;-65
2022/03/12 08:26:03;;;;;;;13.95;7.47;;;3.80;51.40;;;;;;4932724;28;20090;-65
2022/03/12 08:28:29;;;;;;;21.15;7.75;;;3.90;51.30;;;;;;4927317;28;20047;-64
2022/03/12 08:30:55;;;;;;;20.50;8.30;;;4.00;51.30;;;;;;4933588;28;20047;-63
2022/03/12 08:33:20;;;;;;;13.63;7.45;;;4.10;51.20;;;;;;4930761;28;20530;-64
2022/03/12 08:35:47;;;;;;;12.55;7.65;;;4.20;51.10;;;;;;4934377;28;20331;-64
2022/03/12 08:38:13;;;;;;;18.17;8.32;;;4.20;51.00;;;;;;4936353;28;20039;-63
2022/03/12 08:40:39;;;;;;;11.57;7.28;;;4.30;50.90;;;;;;4935587;28;20050;-65
2022/03/12 08:43:04;;;;;;;13.77;7.90;;;4.40;50.80;;;;;;4936025;28;20118;-60
2022/03/12 08:45:31;;;;;;;13.73;7.88;;;4.50;50.80;;;;;;4932578;28;20176;-65
2022/03/12 08:47:57;;;;;;;15.00;7.53;;;4.50;50.60;;;;;;4935181;28;20031;-63
2022/03/12 08:50:24;;;;;;;17.02;7.93;;;4.60;50.50;;;;;;4937901;28;20545;-65
2022/03/12 08:52:50;;;;;;;22.42;8.10;;;4.70;50.40;;;;;;4933003;28;20048;-65
2022/03/12 08:55:16;;;;;;;14.77;8.52;;;4.80;50.40;;;;;;4930957;28;21961;-64
2022/03/12 08:57:42;;;;;;;13.00;7.80;;;4.80;50.50;;;;;;4935526;28;20047;-65
2022/03/12 09:00:10;;;;;;;20.10;8.90;;;4.90;50.50;;;;;;4930706;28;20455;-65
2022/03/12 09:02:37;;;;;;;15.63;8.38;;;5.00;50.30;;;;;;4929622;28;20046;-64
2022/03/12 09:05:05;;;;;;;12.40;7.70;;;5.10;50.10;;;;;;4930005;28;20038;-64
2022/03/12 09:07:32;;;;;;;14.45;8.27;;;5.20;50.20;;;;;;4933040;28;20046;-65
2022/03/12 09:09:58;;;;;;;12.80;8.07;;;5.30;50.10;;;;;;4931519;28;20039;-65
2022/03/12 09:12:25;;;;;;;16.08;7.78;;;5.40;50.00;;;;;;4929828;28;20228;-67
2022/03/12 09:14:51;;;;;;;14.80;8.40;;;5.50;50.00;;;;;;4932436;28;20480;-65
2022/03/12 09:17:17;;;;;;;13.23;8.40;;;5.60;50.00;;;;;;4929304;28;20047;-65
2022/03/12 09:19:43;;;;;;;16.52;8.68;;;5.70;50.00;;;;;;4939770;28;20043;-65
2022/03/12 09:22:09;;;;;;;20.10;9.02;;;5.80;49.90;;;;;;4933374;28;20066;-64
2022/03/12 09:24:38;;;;;;;14.65;9.18;;;5.90;49.80;;;;;;4932899;28;20035;-64
2022/03/12 09:27:04;;;;;;;17.73;9.88;;;6.00;49.70;;;;;;4932721;28;20066;-63
2022/03/12 09:29:32;;;;;;;15.90;9.73;;;6.10;49.60;;;;;;4930241;28;20036;-65
2022/03/12 09:31:58;;;;;;;16.38;9.23;;;6.20;49.30;;;;;;4930770;28;20035;-65
2022/03/12 09:34:24;;;;;;;17.45;9.85;;;6.30;49.20;;;;;;4929995;28;20058;-66
2022/03/12 09:36:50;;;;;;;15.07;9.60;;;6.30;49.00;;;;;;4931621;28;20063;-65
2022/03/12 09:39:15;;;;;;;15.85;8.85;;;6.40;48.90;;;;;;4925859;28;20031;-64
2022/03/12 09:41:41;;;;;;;17.13;9.85;;;6.40;48.90;;;;;;4931344;28;20648;-66
2022/03/12 09:44:08;;;;;;;14.57;9.13;;;6.50;48.90;;;;;;4928814;28;20542;-65
2022/03/12 09:46:34;;;;;;;15.95;8.65;;;6.60;48.90;;;;;;4931588;28;21272;-65
2022/03/12 09:49:00;;;;;;;17.38;9.32;;;6.60;49.00;;;;;;4930278;28;20035;-65
2022/03/12 09:51:29;;;;;;;16.17;9.57;;;6.70;49.00;;;;;;4931344;28;20582;-64
2022/03/12 09:53:55;;;;;;;14.23;8.90;;;6.80;48.90;;;;;;4931674;28;20043;-66
2022/03/12 09:56:21;;;;;;;19.05;9.68;;;6.90;48.80;;;;;;4927352;28;20078;-63
2022/03/12 09:58:47;;;;;;;17.75;9.63;;;7.00;48.80;;;;;;4925912;28;22099;-64
2022/03/12 10:01:13;;;;;;;17.17;10.20;;;7.10;48.40;;;;;;4934937;28;20039;-64
2022/03/12 10:03:41;;;;;;;22.80;11.65;;;7.10;48.50;;;;;;4941593;28;20114;-65
2022/03/12 10:06:06;;;;;;;26.85;13.85;;;7.20;49.10;;;;;;4940170;28;20039;-66
2022/03/12 10:08:32;;;;;;;23.63;14.68;;;7.30;48.40;;;;;;4937676;28;20042;-65
2022/03/12 10:10:58;;;;;;;28.13;18.02;;;7.40;48.20;;;;;;4937438;28;20035;-66
2022/03/12 10:13:23;;;;;;;30.42;17.77;;;7.50;48.00;;;;;;4934865;28;20039;-64
2022/03/12 10:15:49;;;;;;;29.42;15.98;;;7.60;48.00;;;;;;4933982;28;20407;-66
2022/03/12 10:18:15;;;;;;;23.73;13.73;;;7.70;48.00;;;;;;4938994;28;20086;-65
2022/03/12 10:20:40;;;;;;;18.42;10.43;;;7.80;48.00;;;;;;4936915;28;20530;-66
2022/03/12 10:23:07;;;;;;;15.73;10.00;;;7.90;47.90;;;;;;4937937;28;20461;-65
2022/03/12 10:25:34;;;;;;;17.02;10.38;;;8.00;47.80;;;;;;4937811;28;20035;-65
2022/03/12 10:27:59;;;;;;;15.65;9.38;;;8.00;47.60;;;;;;4938231;28;20039;-64
2022/03/12 10:30:25;;;;;;;15.90;10.30;;;8.10;47.20;;;;;;4936293;28;20419;-65
2022/03/12 10:32:51;;;;;;;19.23;10.80;;;8.20;47.50;;;;;;4939008;28;20031;-65
2022/03/12 10:35:19;;;;;;;18.77;10.65;;;8.30;47.40;;;;;;4938122;28;20040;-66
2022/03/12 10:37:49;;;;;;;16.15;10.38;;;8.40;47.30;;;;;;4936065;28;20028;-66
2022/03/12 10:40:24;;;;;;;17.25;10.40;;;8.50;47.20;;;;;;4937881;28;20035;-65
2022/03/12 10:42:50;;;;;;;16.52;10.68;;;8.60;47.10;;;;;;4940508;28;20526;-65
2022/03/12 10:45:24;;;;;;;20.60;10.80;;;8.70;47.30;;;;;;4939408;28;21138;-66
2022/03/12 10:47:55;;;;;;;25.55;10.57;;;8.80;47.10;;;;;;4940851;28;20031;-66
2022/03/12 10:50:25;;;;;;;19.17;10.00;;;8.90;46.80;;;;;;4937209;28;20047;-66
2022/03/12 10:52:54;;;;;;;18.95;10.82;;;9.00;47.00;;;;;;4937825;28;20390;-65
2022/03/12 10:55:26;;;;;;;16.33;10.32;;;9.10;47.00;;;;;;4940455;28;20225;-66
2022/03/12 10:57:54;;;;;;;21.42;11.48;;;9.20;46.80;;;;;;4941029;28;20036;-65
2022/03/12 11:00:20;;;;;;;17.45;10.73;;;9.40;46.30;;;;;;4940801;28;20036;-66
2022/03/12 11:02:53;;;;;;;23.55;10.55;;;9.50;46.40;;;;;;4941185;28;20559;-66
2022/03/12 11:05:27;;;;;;;16.65;10.30;;;9.50;46.60;;;;;;4942581;28;20039;-66
2022/03/12 11:08:17;;;;;;;15.77;10.48;;;9.70;46.10;;;;;;4941616;28;20380;-66
2022/03/12 11:10:50;;;;;;;19.00;10.40;;;9.80;45.50;;;;;;4941131;28;20122;-66
2022/03/12 11:13:26;;;;;;;21.02;11.25;;;9.90;45.90;;;;;;4942269;28;20035;-66
2022/03/12 11:16:31;;;;;;;21.52;11.32;;;10.00;45.20;;;;;;4940205;28;20126;-66
2022/03/12 11:18:57;;;;;;;18.98;10.30;;;10.10;45.50;;;;;;4914771;28;20047;-66
2022/03/12 11:21:37;;;;;;;17.13;10.00;;;10.20;46.00;;;;;;4941181;28;20040;-66
2022/03/12 11:24:05;;;;;;;17.80;11.80;;;10.30;45.70;;;;;;4941653;28;20503;-66
2022/03/12 11:26:32;;;;;;;22.70;11.63;;;10.40;45.20;;;;;;4942032;28;20050;-66
2022/03/12 11:28:58;;;;;;;17.20;11.02;;;10.50;45.40;;;;;;4939521;28;20039;-66
2022/03/12 11:31:39;;;;;;;15.88;11.23;;;10.60;45.40;;;;;;4939269;28;20043;-67
2022/03/12 11:34:34;;;;;;;19.65;11.40;;;10.70;45.30;;;;;;4942483;28;20031;-66
2022/03/12 11:37:13;;;;;;;18.90;10.52;;;10.80;45.10;;;;;;4942016;28;20035;-66
2022/03/12 11:39:44;;;;;;;18.60;10.45;;;10.90;45.50;;;;;;4941362;28;20036;-67
2022/03/12 11:42:11;;;;;;;17.20;10.95;;;11.10;45.30;;;;;;4942700;28;20032;-67
2022/03/12 11:44:49;;;;;;;18.15;11.32;;;11.10;45.10;;;;;;4941977;28;20252;-65
2022/03/12 11:47:21;;;;;;;14.52;9.85;;;11.20;44.80;;;;;;4940769;28;20029;-66
2022/03/12 11:49:49;;;;;;;18.73;10.98;;;11.40;45.00;;;;;;4942205;28;20036;-66
2022/03/12 11:52:16;;;;;;;17.58;10.50;;;11.50;44.90;;;;;;4938579;28;20594;-65
2022/03/12 11:54:43;;;;;;;15.23;10.68;;;11.60;44.90;;;;;;4937441;28;20069;-66
2022/03/12 11:57:10;;;;;;;19.40;11.07;;;11.60;44.80;;;;;;4940196;28;20090;-66
2022/03/12 11:59:37;;;;;;;16.98;11.02;;;11.70;44.90;;;;;;4936819;28;20043;-66
2022/03/12 12:02:14;;;;;;;13.93;10.35;;;11.70;44.70;;;;;;4938621;28;20519;-67
2022/03/12 12:04:40;;;;;;;18.25;9.75;;;11.90;44.50;;;;;;4938363;28;20319;-66
2022/03/12 12:07:06;;;;;;;15.27;10.00;;;12.00;44.50;;;;;;4938817;28;20110;-66
2022/03/12 12:09:32;;;;;;;14.57;9.65;;;12.00;44.50;;;;;;4937085;28;20095;-66
2022/03/12 12:12:00;;;;;;;15.57;9.60;;;12.10;44.50;;;;;;4938957;28;20032;-66
2022/03/12 12:14:26;;;;;;;18.27;10.10;;;12.20;44.70;;;;;;4937801;28;20093;-66
2022/03/12 12:16:56;;;;;;;17.13;10.95;;;12.30;44.70;;;;;;4940036;28;20638;-66
2022/03/12 12:19:22;;;;;;;12.25;9.45;;;12.40;44.20;;;;;;4939657;28;20028;-65
2022/03/12 12:21:48;;;;;;;13.48;9.32;;;12.50;44.50;;;;;;4939459;28;20050;-66
2022/03/12 12:24:26;;;;;;;17.70;9.50;;;12.60;44.50;;;;;;4940342;28;20037;-66
2022/03/12 12:27:04;;;;;;;19.35;10.25;;;12.60;44.20;;;;;;4938482;28;20075;-66
2022/03/12 12:29:47;;;;;;;15.85;9.30;;;12.70;44.80;;;;;;4939737;28;20032;-66
2022/03/12 12:32:15;;;;;;;15.27;9.35;;;12.70;44.10;;;;;;4942631;28;20091;-66
2022/03/12 12:35:11;;;;;;;12.40;8.90;;;12.70;44.40;;;;;;4940548;28;20028;-66
2022/03/12 12:37:49;;;;;;;12.15;9.05;;;12.80;44.30;;;;;;4942303;28;20393;-66
2022/03/12 12:40:21;;;;;;;15.05;9.38;;;12.80;44.40;;;;;;4936306;28;21174;-65
2022/03/12 12:42:48;;;;;;;15.48;9.50;;;12.90;44.50;;;;;;4936637;28;20032;-66
2022/03/12 12:45:16;;;;;;;13.98;9.13;;;12.90;44.40;;;;;;4938095;28;20086;-66
2022/03/12 12:47:42;;;;;;;16.88;9.45;;;12.90;44.00;;;;;;4938001;28;20131;-66
2022/03/12 12:50:24;;;;;;;12.10;8.82;;;12.90;44.10;;;;;;4938419;28;20167;-66